NQA weather

Millington-Memphis Airport
Millington, Tennessee, United States

Public forecast

Using degrees Fahrenheit for public forecast. Weather courtesy of forecast.io.

METAR (pilot weather report)

Retrieved 2019/05/23 01:50 UTC (35 minutes ago):

KNQA 230150Z 15008KT 10SM CLR 27/22 A2996

TAF (pilot weather forecast)

Forecast is more than 12 hours old.

Closest forecast is Memphis International Airport, 19.6 nm (36.3 km) SSW. Retrieved 2019/05/22 00:30 UTC (1 day ago):

TAF KMEM 222329Z 2300/2406 18012KT P6SM FEW040 FM230200 19006KT P6SM SCT250 FM231500 20009KT P6SM SCT040 SCT250